Time;durP1;ratioP1;P1;durP2;ratioP2;P2;SDS_P1;SDS_P2;PMS_P1;PMS_P2;Temp;Humidity;BMP_temperature;BMP_pressure;BME280_temperature;BME280_humidity;BME280_pressure;Samples;Min_cycle;Max_cycle;Signal;HPM_P1;HPM_P2
2024/01/05 00:00:31;;;;;;;20.05;7.30;;;;;;;11.68;82.37;99873.22;5011241;28;20042;-46
2024/01/05 00:02:59;;;;;;;19.05;7.00;;;;;;;11.78;81.84;99869.69;5010622;28;20793;-48
2024/01/05 00:05:25;;;;;;;20.13;7.25;;;;;;;12.18;80.83;99869.38;5010569;28;20042;-49
2024/01/05 00:07:50;;;;;;;18.48;6.78;;;;;;;12.17;81.12;99862.41;5011000;28;20048;-44
2024/01/05 00:10:16;;;;;;;19.75;6.70;;;;;;;12.13;80.66;99858.09;5012857;28;20033;-47
2024/01/05 00:12:41;;;;;;;22.35;6.40;;;;;;;11.63;83.16;99848.03;5014830;28;20057;-44
2024/01/05 00:15:07;;;;;;;19.67;6.22;;;;;;;12.12;80.62;99853.75;5013488;28;20120;-46
2024/01/05 00:17:33;;;;;;;23.27;5.90;;;;;;;12.24;80.90;99851.03;5011358;28;20125;-45
2024/01/05 00:19:58;;;;;;;21.02;6.50;;;;;;;12.17;80.74;99849.34;5009380;28;20049;-50
2024/01/05 00:22:24;;;;;;;23.00;5.90;;;;;;;12.00;81.69;99835.59;5011062;28;20037;-46
2024/01/05 00:24:49;;;;;;;21.90;5.90;;;;;;;12.19;81.41;99821.47;5010501;28;20121;-45
2024/01/05 00:27:15;;;;;;;18.00;6.15;;;;;;;12.40;79.18;99839.53;5011698;28;20053;-52
2024/01/05 00:29:40;;;;;;;18.52;6.13;;;;;;;12.38;79.87;99835.22;5010644;28;20030;-45
2024/01/05 00:32:06;;;;;;;23.33;6.88;;;;;;;11.92;81.77;99830.41;5011140;28;20507;-43
2024/01/05 00:34:31;;;;;;;20.88;6.95;;;;;;;12.04;81.90;99825.09;5010685;28;20046;-46
2024/01/05 00:36:57;;;;;;;20.45;6.60;;;;;;;12.43;79.85;99818.59;5008565;28;20038;-44
2024/01/05 00:39:22;;;;;;;20.80;6.13;;;;;;;12.12;80.77;99814.56;5010214;28;20648;-43
2024/01/05 00:41:47;;;;;;;18.23;6.28;;;;;;;12.49;79.91;99809.81;5010858;28;20076;-46
2024/01/05 00:44:13;;;;;;;22.10;6.43;;;;;;;12.26;81.35;99804.81;5010717;28;20045;-45
2024/01/05 00:46:39;;;;;;;17.77;6.18;;;;;;;12.42;80.14;99806.41;5011617;28;20030;-44
2024/01/05 00:49:04;;;;;;;18.63;6.40;;;;;;;12.45;80.26;99805.50;5012274;28;20029;-46
2024/01/05 00:51:29;;;;;;;20.80;6.50;;;;;;;12.24;81.17;99798.78;5010240;28;20041;-50
2024/01/05 00:53:55;;;;;;;17.25;6.20;;;;;;;12.43;81.17;99800.31;5010113;28;20049;-44
2024/01/05 00:56:21;;;;;;;20.15;6.18;;;;;;;12.33;80.76;99796.03;5011848;28;20038;-44
2024/01/05 00:58:46;;;;;;;23.27;6.90;;;;;;;12.25;81.35;99797.03;5019312;28;20076;-44
2024/01/05 01:01:12;;;;;;;20.05;6.30;;;;;;;12.41;81.16;99788.13;5019617;28;20038;-46
2024/01/05 01:03:37;;;;;;;23.23;6.32;;;;;;;12.33;81.49;99785.59;5019780;28;20113;-44
2024/01/05 01:06:03;;;;;;;18.73;5.78;;;;;;;12.27;81.28;99783.03;5014623;28;20038;-45
2024/01/05 01:08:28;;;;;;;20.38;6.15;;;;;;;12.52;80.66;99786.25;5014280;28;20540;-48
2024/01/05 01:10:54;;;;;;;19.08;5.55;;;;;;;12.84;79.82;99775.38;5013853;28;20034;-45
2024/01/05 01:13:19;;;;;;;19.13;6.32;;;;;;;12.81;80.06;99781.50;5013796;28;20042;-43
2024/01/05 01:15:44;;;;;;;16.88;5.38;;;;;;;12.32;81.80;99772.56;5013366;28;20056;-44
2024/01/05 01:18:10;;;;;;;18.30;5.50;;;;;;;12.46;81.94;99766.28;5012496;28;20524;-44
2024/01/05 01:20:35;;;;;;;18.92;5.20;;;;;;;12.76;80.49;99759.78;5013868;28;20033;-47
2024/01/05 01:23:00;;;;;;;18.52;4.97;;;;;;;12.29;81.83;99769.97;5013213;28;20030;-45
2024/01/05 01:25:26;;;;;;;17.75;5.57;;;;;;;12.32;81.75;99747.25;5013963;28;20026;-45
2024/01/05 01:27:51;;;;;;;20.73;5.93;;;;;;;12.64;81.34;99748.63;5011814;28;20033;-46
2024/01/05 01:30:16;;;;;;;24.63;5.82;;;;;;;12.65;80.85;99746.00;5013778;28;20058;-47
2024/01/05 01:32:42;;;;;;;16.92;5.00;;;;;;;12.79;79.99;99741.47;5013888;28;20030;-46
2024/01/05 01:35:07;;;;;;;19.90;4.38;;;;;;;12.59;80.83;99741.72;5012636;28;20033;-43
2024/01/05 01:37:33;;;;;;;13.55;4.18;;;;;;;12.80;80.03;99739.72;5013664;28;20058;-44
2024/01/05 01:39:58;;;;;;;14.40;4.03;;;;;;;12.76;79.89;99733.63;5012784;28;20038;-44
2024/01/05 01:42:24;;;;;;;17.50;4.15;;;;;;;12.83;79.58;99735.28;5011999;28;20653;-44
2024/01/05 01:44:50;;;;;;;18.10;4.75;;;;;;;12.33;81.70;99727.22;5013063;28;20040;-44
2024/01/05 01:47:16;;;;;;;14.02;4.50;;;;;;;12.30;81.98;99722.91;5013191;28;20056;-51
2024/01/05 01:49:41;;;;;;;16.05;4.32;;;;;;;12.77;80.65;99710.97;5014076;28;20038;-44
2024/01/05 01:52:07;;;;;;;17.92;4.57;;;;;;;12.18;81.86;99707.38;5013492;28;20096;-44
2024/01/05 01:54:34;;;;;;;15.68;4.43;;;;;;;12.12;82.82;99717.91;5013716;28;20042;-45
2024/01/05 01:56:59;;;;;;;15.23;4.60;;;;;;;12.76;80.19;99696.16;5014203;28;20054;-44
2024/01/05 01:59:25;;;;;;;20.38;4.10;;;;;;;12.48;81.26;99693.94;5015231;28;20069;-46
2024/01/05 02:01:51;;;;;;;12.77;4.13;;;;;;;12.91;79.57;99694.19;5014034;28;20053;-44
2024/01/05 02:04:19;;;;;;;11.38;3.63;;;;;;;12.94;78.63;99683.66;5012764;28;20045;-51
2024/01/05 02:06:45;;;;;;;17.17;4.10;;;;;;;12.52;80.47;99674.69;5013983;28;20033;-46
2024/01/05 02:09:10;;;;;;;14.88;3.90;;;;;;;12.80;80.03;99680.41;5015566;28;20092;-44
2024/01/05 02:11:36;;;;;;;16.65;3.90;;;;;;;12.77;79.61;99669.13;5014396;28;20033;-45
2024/01/05 02:14:02;;;;;;;11.82;3.60;;;;;;;12.64;80.68;99667.56;5012036;28;20042;-45
2024/01/05 02:16:27;;;;;;;10.90;3.50;;;;;;;12.75;79.65;99665.66;5011369;28;20045;-46
2024/01/05 02:18:55;;;;;;;15.90;3.75;;;;;;;13.03;79.03;99656.50;5011929;28;20038;-49
2024/01/05 02:21:28;;;;;;;11.10;3.40;;;;;;;13.03;79.25;99651.28;5012666;28;20044;-44
2024/01/05 02:23:54;;;;;;;14.13;3.73;;;;;;;12.99;79.46;99644.38;5012255;28;20730;-45
2024/01/05 02:26:19;;;;;;;13.95;3.72;;;;;;;13.02;79.17;99644.31;5012580;28;20038;-49
2024/01/05 02:28:45;;;;;;;12.77;3.15;;;;;;;12.76;80.12;99641.22;5012340;28;20038;-44
2024/01/05 02:31:10;;;;;;;15.45;3.38;;;;;;;13.00;79.26;99640.84;5013270;28;20038;-45
2024/01/05 02:33:36;;;;;;;10.45;2.90;;;;;;;12.61;80.65;99626.66;5013389;28;20049;-48
2024/01/05 02:36:01;;;;;;;16.27;3.35;;;;;;;12.86;79.73;99633.25;5012374;28;20040;-47
2024/01/05 02:38:26;;;;;;;10.55;2.70;;;;;;;12.62;79.90;99627.53;5012102;28;20527;-43
2024/01/05 02:40:55;;;;;;;12.30;2.97;;;;;;;12.80;80.01;99627.25;5011850;28;20111;-48
2024/01/05 02:43:21;;;;;;;14.85;3.58;;;;;;;12.70;80.51;99623.88;5012593;28;20049;-43
2024/01/05 02:45:46;;;;;;;12.80;3.00;;;;;;;13.14;78.56;99620.59;5011788;28;20564;-48
2024/01/05 02:48:11;;;;;;;15.52;2.78;;;;;;;13.02;79.38;99610.31;5012168;28;20412;-44
2024/01/05 02:50:37;;;;;;;11.82;3.10;;;;;;;13.23;78.38;99609.13;5011798;28;20041;-46
2024/01/05 02:53:02;;;;;;;14.40;3.00;;;;;;;12.97;79.77;99615.63;5011552;28;20037;-44
2024/01/05 02:55:27;;;;;;;10.98;2.78;;;;;;;13.01;79.76;99608.56;5010725;28;20046;-43
2024/01/05 02:57:53;;;;;;;13.50;3.17;;;;;;;13.07;78.60;99602.38;5011538;28;20568;-48
2024/01/05 03:00:18;;;;;;;15.05;3.38;;;;;;;12.94;78.97;99597.34;5012290;28;20044;-44
2024/01/05 03:02:44;;;;;;;10.07;3.30;;;;;;;12.74;80.26;99599.44;5012199;28;20041;-45
2024/01/05 03:05:09;;;;;;;14.15;3.15;;;;;;;12.80;80.37;99581.03;5010677;28;20041;-49
2024/01/05 03:07:34;;;;;;;13.18;3.22;;;;;;;12.76;79.81;99584.56;5012581;28;20034;-47
2024/01/05 03:09:59;;;;;;;15.05;3.33;;;;;;;12.69;80.26;99588.16;5011477;28;20040;-45
2024/01/05 03:12:25;;;;;;;12.60;3.60;;;;;;;12.79;79.56;99583.66;5010220;28;20144;-44
2024/01/05 03:14:50;;;;;;;13.13;2.95;;;;;;;12.62;80.29;99575.22;5011256;28;20034;-45
2024/01/05 03:17:15;;;;;;;14.02;3.60;;;;;;;13.21;78.53;99569.88;5013073;28;20037;-49
2024/01/05 03:19:41;;;;;;;11.73;3.05;;;;;;;13.22;77.82;99570.75;5011416;28;20034;-43
2024/01/05 03:22:06;;;;;;;12.98;3.10;;;;;;;13.15;78.03;99564.75;5011506;28;20401;-45
2024/01/05 03:24:31;;;;;;;11.13;3.40;;;;;;;13.14;78.13;99570.00;5011694;28;20413;-44
2024/01/05 03:26:57;;;;;;;15.63;3.35;;;;;;;13.37;77.36;99559.97;5010720;28;20069;-49
2024/01/05 03:29:22;;;;;;;11.10;2.85;;;;;;;13.22;77.01;99553.28;5011463;28;20120;-51
2024/01/05 03:31:47;;;;;;;11.05;3.25;;;;;;;13.40;77.01;99550.34;5010769;28;20048;-46
2024/01/05 03:34:14;;;;;;;10.15;3.25;;;;;;;13.35;77.13;99553.94;5010719;28;20045;-44
2024/01/05 03:36:40;;;;;;;10.25;2.38;;;;;;;13.06;78.48;99556.16;5009486;28;20041;-44
2024/01/05 03:39:08;;;;;;;8.40;2.33;;;;;;;12.93;78.80;99550.28;5010118;28;20033;-45
2024/01/05 03:41:34;;;;;;;10.85;2.88;;;;;;;12.99;78.56;99544.97;5009684;28;20507;-46
2024/01/05 03:44:00;;;;;;;8.90;2.00;;;;;;;12.93;78.58;99542.44;5010205;28;20033;-44
2024/01/05 03:46:25;;;;;;;8.77;2.13;;;;;;;12.99;78.58;99534.50;5011040;28;20037;-44
2024/01/05 03:48:51;;;;;;;11.15;2.17;;;;;;;13.16;77.89;99529.84;5010524;28;20050;-48
2024/01/05 03:51:16;;;;;;;10.05;2.33;;;;;;;13.13;78.06;99518.56;5011204;28;20127;-43
2024/01/05 03:53:41;;;;;;;9.15;2.40;;;;;;;13.03;78.56;99512.63;5011052;28;20488;-47
2024/01/05 03:56:08;;;;;;;7.15;2.38;;;;;;;13.17;77.05;99512.41;5011908;28;20049;-45
2024/01/05 03:58:34;;;;;;;6.38;1.92;;;;;;;12.87;78.36;99503.31;5011678;28;20034;-47
2024/01/05 04:01:00;;;;;;;8.35;2.42;;;;;;;12.97;78.47;99503.13;5010376;28;20030;-46
2024/01/05 04:03:25;;;;;;;8.93;2.05;;;;;;;12.92;78.31;99502.34;5010825;28;20054;-49
2024/01/05 04:05:51;;;;;;;5.85;2.20;;;;;;;12.82;78.07;99495.53;5008991;28;20041;-44
2024/01/05 04:08:16;;;;;;;11.43;2.35;;;;;;;12.79;78.09;99487.78;5011560;28;20412;-43
2024/01/05 04:10:41;;;;;;;8.68;2.28;;;;;;;12.63;79.86;99490.66;5013442;28;20042;-46
2024/01/05 04:13:07;;;;;;;9.90;2.10;;;;;;;12.75;79.58;99485.22;5012932;28;20505;-43
2024/01/05 04:15:37;;;;;;;6.97;2.00;;;;;;;12.98;78.31;99483.06;5013767;28;20041;-45
2024/01/05 04:18:02;;;;;;;7.38;1.77;;;;;;;12.63;79.27;99472.34;5013019;28;20041;-47
2024/01/05 04:20:28;;;;;;;10.95;2.42;;;;;;;12.52;79.95;99467.31;5011584;28;20042;-45
2024/01/05 04:22:53;;;;;;;11.93;2.35;;;;;;;12.82;78.38;99469.38;5010471;28;20403;-43
2024/01/05 04:25:18;;;;;;;11.68;2.10;;;;;;;12.72;79.14;99465.22;5010861;28;20057;-48
2024/01/05 04:27:44;;;;;;;7.65;2.15;;;;;;;12.68;78.65;99457.47;5011047;28;20033;-45
2024/01/05 04:30:09;;;;;;;7.07;1.98;;;;;;;12.96;77.72;99454.31;5010384;28;20120;-44
2024/01/05 04:32:36;;;;;;;7.55;2.10;;;;;;;13.05;77.80;99460.28;5010439;28;20527;-47
2024/01/05 04:35:01;;;;;;;7.55;1.90;;;;;;;13.02;77.51;99456.81;5009397;28;20037;-45
2024/01/05 04:37:27;;;;;;;9.00;2.00;;;;;;;13.04;77.19;99443.72;5011254;28;20047;-48
2024/01/05 04:39:52;;;;;;;10.82;2.00;;;;;;;13.12;76.58;99446.16;5011272;28;20033;-42
2024/01/05 04:42:17;;;;;;;8.68;2.03;;;;;;;13.06;76.86;99439.28;5011135;28;20046;-47
2024/01/05 04:44:43;;;;;;;5.20;1.70;;;;;;;13.18;76.33;99441.69;5010783;28;20038;-47
2024/01/05 04:47:08;;;;;;;6.88;1.70;;;;;;;13.21;76.14;99436.41;5010115;28;20432;-44
2024/01/05 04:49:33;;;;;;;9.85;1.85;;;;;;;13.26;75.62;99434.56;5011183;28;20061;-49
2024/01/05 04:52:00;;;;;;;10.68;1.77;;;;;;;13.19;75.85;99442.56;5010314;28;20062;-46
2024/01/05 04:54:25;;;;;;;7.40;1.65;;;;;;;13.29;75.35;99445.00;5010843;28;20110;-44
2024/01/05 04:56:51;;;;;;;6.97;1.85;;;;;;;13.15;75.85;99427.81;5011301;28;20060;-46
2024/01/05 04:59:16;;;;;;;6.57;1.90;;;;;;;13.15;75.72;99425.22;5010764;28;20044;-51
2024/01/05 05:01:42;;;;;;;7.10;1.85;;;;;;;13.12;75.88;99431.34;5010829;28;20066;-49
2024/01/05 05:04:07;;;;;;;6.65;1.83;;;;;;;12.99;76.30;99435.94;5009944;28;20121;-46
2024/01/05 05:06:33;;;;;;;8.50;1.80;;;;;;;12.94;76.03;99435.16;5010020;28;20034;-45
2024/01/05 05:08:58;;;;;;;8.30;1.73;;;;;;;13.06;76.00;99422.72;5009349;28;20038;-46
2024/01/05 05:11:23;;;;;;;8.30;2.03;;;;;;;12.43;76.88;99423.03;5010042;28;20057;-43
2024/01/05 05:13:48;;;;;;;7.93;1.80;;;;;;;12.74;76.30;99429.47;5009320;28;20061;-46
2024/01/05 05:16:14;;;;;;;6.30;1.40;;;;;;;12.73;75.65;99419.03;5009854;28;20041;-47
2024/01/05 05:18:39;;;;;;;3.03;1.40;;;;;;;12.39;75.47;99439.66;5009779;28;20564;-46
2024/01/05 05:21:05;;;;;;;5.00;1.42;;;;;;;12.03;75.77;99428.91;5009553;28;20026;-46
2024/01/05 05:23:30;;;;;;;2.78;1.30;;;;;;;12.02;74.71;99439.38;5008270;28;20091;-45
2024/01/05 05:25:57;;;;;;;4.10;1.25;;;;;;;12.07;74.51;99440.19;5009203;28;20029;-46
2024/01/05 05:28:22;;;;;;;5.38;0.95;;;;;;;12.32;73.28;99441.50;5009383;28;20065;-45
2024/01/05 05:30:48;;;;;;;2.33;0.90;;;;;;;12.24;73.09;99437.31;5008985;28;20062;-45
2024/01/05 05:33:13;;;;;;;4.80;1.05;;;;;;;12.29;73.11;99435.47;5009603;28;20049;-47
2024/01/05 05:35:39;;;;;;;2.03;0.90;;;;;;;12.05;73.11;99434.13;5009209;28;20410;-41
2024/01/05 05:38:04;;;;;;;4.65;0.90;;;;;;;12.11;72.88;99440.13;5009331;28;20070;-44
2024/01/05 05:40:32;;;;;;;4.70;0.82;;;;;;;11.92;72.73;99430.81;5009576;28;20034;-50
2024/01/05 05:42:58;;;;;;;3.13;0.90;;;;;;;12.12;72.77;99428.78;5009515;28;20037;-50
2024/01/05 05:45:23;;;;;;;2.60;0.90;;;;;;;11.96;72.59;99435.09;5010295;28;20034;-46
2024/01/05 05:47:48;;;;;;;2.42;0.70;;;;;;;12.29;71.66;99425.03;5010670;28;20400;-44
2024/01/05 05:50:14;;;;;;;2.60;0.80;;;;;;;12.03;71.92;99436.75;5010390;28;20034;-48
2024/01/05 05:52:40;;;;;;;2.13;0.70;;;;;;;11.54;71.85;99426.13;5013720;28;20041;-46
2024/01/05 05:55:06;;;;;;;2.10;0.68;;;;;;;11.79;71.01;99426.66;5014058;28;20034;-45
2024/01/05 05:57:32;;;;;;;3.00;0.60;;;;;;;12.00;70.58;99423.75;5015712;28;20040;-46
2024/01/05 05:59:57;;;;;;;1.02;0.70;;;;;;;11.96;69.70;99422.06;5014265;28;20030;-46
2024/01/05 06:02:22;;;;;;;2.30;0.68;;;;;;;11.85;69.71;99426.56;5014256;28;20080;-49
2024/01/05 06:04:48;;;;;;;2.63;0.60;;;;;;;12.08;68.86;99424.47;5015894;28;20061;-47
2024/01/05 06:07:13;;;;;;;2.28;0.70;;;;;;;11.97;68.82;99425.53;5018831;28;20476;-48
2024/01/05 06:09:38;;;;;;;1.23;0.60;;;;;;;11.84;68.81;99424.84;5019002;28;20033;-46
2024/01/05 06:12:04;;;;;;;1.42;0.73;;;;;;;12.23;68.43;99436.44;5018896;28;20037;-45
2024/01/05 06:14:30;;;;;;;1.60;0.70;;;;;;;11.92;68.26;99429.97;5012981;28;20048;-44
2024/01/05 06:16:55;;;;;;;1.52;0.60;;;;;;;12.25;67.69;99429.44;5012588;28;20041;-48
2024/01/05 06:19:20;;;;;;;1.20;0.80;;;;;;;12.22;68.18;99434.72;5013527;28;20492;-44
2024/01/05 06:21:46;;;;;;;1.75;0.90;;;;;;;12.32;67.61;99430.22;5013192;28;20034;-48
2024/01/05 06:24:11;;;;;;;2.13;0.90;;;;;;;12.10;69.01;99421.84;5016394;28;20026;-49
2024/01/05 06:26:37;;;;;;;2.00;0.80;;;;;;;12.18;69.09;99422.59;5019622;28;20045;-43
2024/01/05 06:29:02;;;;;;;2.50;0.80;;;;;;;11.96;70.13;99424.66;5020413;28;20030;-47
2024/01/05 06:31:28;;;;;;;3.15;0.90;;;;;;;12.12;69.36;99423.56;5018451;28;20037;-46
2024/01/05 06:33:53;;;;;;;1.67;0.90;;;;;;;12.07;69.94;99425.38;5011968;28;20575;-46
2024/01/05 06:36:18;;;;;;;3.55;0.93;;;;;;;11.99;70.60;99421.16;5012959;28;20041;-47
2024/01/05 06:38:44;;;;;;;1.58;0.95;;;;;;;12.08;70.31;99427.09;5011485;28;20060;-49
2024/01/05 06:41:09;;;;;;;1.95;0.82;;;;;;;12.12;71.30;99427.91;5012827;28;20038;-47
2024/01/05 06:43:34;;;;;;;4.93;1.20;;;;;;;11.98;71.08;99435.97;5013678;28;20496;-45
2024/01/05 06:45:59;;;;;;;4.43;1.10;;;;;;;11.47;73.49;99421.00;5012336;28;20041;-42
2024/01/05 06:48:25;;;;;;;1.70;1.20;;;;;;;11.58;74.54;99429.56;5014186;28;20034;-43
2024/01/05 06:50:50;;;;;;;2.08;1.17;;;;;;;11.68;74.24;99423.31;5011705;28;20042;-47
2024/01/05 06:53:16;;;;;;;4.15;1.00;;;;;;;11.19;75.34;99417.88;5012589;28;20030;-43
2024/01/05 06:55:41;;;;;;;2.72;1.00;;;;;;;11.51;74.65;99417.47;5012208;28;20578;-43
2024/01/05 06:58:06;;;;;;;2.88;1.20;;;;;;;11.56;74.41;99416.53;5011620;28;20104;-47
2024/01/05 07:00:32;;;;;;;1.80;1.00;;;;;;;11.56;74.30;99407.84;5011892;28;20118;-45
2024/01/05 07:02:58;;;;;;;2.92;1.17;;;;;;;11.53;74.70;99403.50;5011135;28;20760;-45
2024/01/05 07:05:23;;;;;;;3.75;1.20;;;;;;;11.43;74.97;99404.53;5012313;28;20065;-48
2024/01/05 07:07:49;;;;;;;5.50;1.25;;;;;;;11.15;75.88;99398.81;5011521;28;20034;-44
2024/01/05 07:10:14;;;;;;;3.50;1.33;;;;;;;11.40;75.02;99396.75;5011722;28;20044;-43
2024/01/05 07:12:39;;;;;;;2.80;1.55;;;;;;;11.33;75.32;99398.56;5011840;28;20041;-46
2024/01/05 07:15:06;;;;;;;7.18;1.70;;;;;;;11.04;76.61;99392.84;5011301;28;20572;-45
2024/01/05 07:17:32;;;;;;;3.80;1.73;;;;;;;11.20;76.66;99393.53;5012567;28;20073;-42
2024/01/05 07:19:57;;;;;;;3.20;1.83;;;;;;;11.15;76.57;99396.22;5011554;28;20459;-48
2024/01/05 07:22:23;;;;;;;3.65;2.03;;;;;;;11.01;76.67;99399.84;5012152;28;20106;-46
2024/01/05 07:24:49;;;;;;;2.55;1.80;;;;;;;11.05;75.98;99397.19;5010362;28;20427;-47
2024/01/05 07:27:16;;;;;;;3.35;1.70;;;;;;;11.22;76.07;99397.00;5011244;28;20125;-47
2024/01/05 07:29:42;;;;;;;3.58;1.90;;;;;;;11.33;75.63;99395.97;5011462;28;20033;-44
2024/01/05 07:32:07;;;;;;;5.20;1.90;;;;;;;11.31;75.67;99391.63;5009984;28;20040;-45
2024/01/05 07:34:33;;;;;;;3.78;1.92;;;;;;;11.34;75.17;99397.66;5010782;28;20393;-46
2024/01/05 07:36:58;;;;;;;4.75;1.77;;;;;;;11.40;75.09;99399.38;5010586;28;20034;-43
2024/01/05 07:39:24;;;;;;;4.90;2.15;;;;;;;11.24;75.87;99385.63;5012010;28;20038;-45
2024/01/05 07:41:50;;;;;;;5.07;2.25;;;;;;;11.11;76.85;99388.41;5011022;28;20121;-44
2024/01/05 07:44:15;;;;;;;4.65;2.10;;;;;;;11.25;76.57;99396.94;5010658;28;20045;-44
2024/01/05 07:46:41;;;;;;;4.32;2.25;;;;;;;11.31;76.25;99399.47;5011360;28;20042;-49
2024/01/05 07:49:07;;;;;;;8.55;2.30;;;;;;;11.33;75.37;99390.75;5011659;28;20041;-50
2024/01/05 07:51:32;;;;;;;4.55;2.22;;;;;;;11.31;75.95;99389.91;5023716;22;20050;-44
2024/01/05 07:53:58;;;;;;;6.10;2.17;;;;;;;11.20;76.00;99383.97;5009829;28;20033;-44
2024/01/05 07:56:23;;;;;;;3.38;2.10;;;;;;;11.18;76.87;99388.31;5011857;28;20407;-44
2024/01/05 07:58:49;;;;;;;4.93;2.30;;;;;;;11.04;77.42;99382.41;5011250;28;20152;-44
2024/01/05 08:01:19;;;;;;;3.67;2.30;;;;;;;10.85;78.02;99378.31;5011212;28;20120;-47
2024/01/05 08:03:45;;;;;;;6.47;2.47;;;;;;;11.03;77.15;99374.63;5009866;28;20033;-45
2024/01/05 08:06:18;;;;;;;3.90;2.70;;;;;;;10.91;77.80;99376.50;5010005;28;20164;-44
2024/01/05 08:08:47;;;;;;;5.25;2.97;;;;;;;11.04;77.99;99371.97;5010106;28;20382;-46
2024/01/05 08:11:14;;;;;;;4.10;2.80;;;;;;;11.09;77.90;99371.94;5009836;28;20034;-45
2024/01/05 08:13:43;;;;;;;6.95;2.70;;;;;;;10.93;78.63;99373.84;5009067;28;20042;-46
2024/01/05 08:16:09;;;;;;;4.05;2.60;;;;;;;11.14;77.77;99376.22;5008022;28;20037;-45
2024/01/05 08:18:35;;;;;;;5.65;2.70;;;;;;;11.05;77.72;99373.72;5008344;28;20034;-45
2024/01/05 08:21:02;;;;;;;4.50;2.83;;;;;;;11.17;77.47;99370.94;5009423;28;20404;-45
2024/01/05 08:23:28;;;;;;;4.53;2.50;;;;;;;10.53;79.40;99365.63;5009208;28;20678;-44
2024/01/05 08:25:53;;;;;;;3.63;2.38;;;;;;;10.99;78.38;99363.34;5009313;28;20038;-46
2024/01/05 08:28:18;;;;;;;3.00;2.28;;;;;;;11.27;77.81;99359.53;5009559;28;20505;-46
2024/01/05 08:30:44;;;;;;;3.00;2.25;;;;;;;11.27;77.48;99353.44;5009630;28;20155;-45
2024/01/05 08:33:10;;;;;;;3.97;2.47;;;;;;;10.97;77.92;99354.72;5008889;28;20072;-47
2024/01/05 08:35:36;;;;;;;3.55;2.53;;;;;;;11.06;77.75;99349.38;5009887;28;20057;-44
2024/01/05 08:38:02;;;;;;;4.28;2.78;;;;;;;11.22;78.81;99348.25;5009678;28;20154;-47
2024/01/05 08:40:29;;;;;;;4.78;3.30;;;;;;;11.07;78.84;99345.00;5010031;28;20041;-44
2024/01/05 08:42:55;;;;;;;6.15;3.53;;;;;;;11.10;78.40;99343.22;5009239;28;20030;-45
2024/01/05 08:45:21;;;;;;;5.63;3.33;;;;;;;11.38;77.63;99347.19;5009260;28;20049;-44
2024/01/05 08:47:46;;;;;;;6.90;3.88;;;;;;;11.28;77.56;99344.75;5007854;28;20501;-44
2024/01/05 08:50:12;;;;;;;8.70;4.22;;;;;;;11.28;78.31;99344.75;5007891;28;20046;-45
2024/01/05 08:52:37;;;;;;;7.45;4.40;;;;;;;10.96;78.91;99340.81;5009555;28;20046;-45
2024/01/05 08:55:03;;;;;;;7.45;4.75;;;;;;;11.18;78.37;99343.97;5008353;28;20453;-44
2024/01/05 08:57:29;;;;;;;7.78;5.18;;;;;;;10.95;79.78;99339.06;5009371;28;20447;-46
2024/01/05 08:59:54;;;;;;;8.50;5.25;;;;;;;11.15;78.67;99332.75;5008870;28;20042;-45
2024/01/05 09:02:20;;;;;;;10.73;6.10;;;;;;;11.20;78.50;99333.53;5008360;28;20628;-43
2024/01/05 09:04:45;;;;;;;8.50;5.53;;;;;;;11.26;78.67;99330.84;5008827;28;20064;-44
2024/01/05 09:07:11;;;;;;;9.05;6.20;;;;;;;11.03;79.31;99323.34;5009109;28;20037;-44
2024/01/05 09:09:36;;;;;;;10.43;6.35;;;;;;;11.01;79.37;99325.09;5009231;28;20069;-45
2024/01/05 09:12:02;;;;;;;9.23;5.90;;;;;;;11.38;78.22;99320.22;5008673;28;20083;-45
2024/01/05 09:14:27;;;;;;;8.95;5.78;;;;;;;11.35;78.71;99321.13;5008966;28;20038;-48
2024/01/05 09:16:53;;;;;;;13.07;6.40;;;;;;;11.46;78.76;99323.59;5008826;28;20141;-45
2024/01/05 09:19:18;;;;;;;9.40;6.30;;;;;;;11.22;79.13;99323.94;5009313;28;20109;-46
2024/01/05 09:21:43;;;;;;;10.65;5.53;;;;;;;11.37;79.12;99328.94;5009346;28;20034;-45
2024/01/05 09:24:09;;;;;;;12.23;6.00;;;;;;;11.44;78.66;99333.19;5008587;28;20400;-47
2024/01/05 09:26:35;;;;;;;11.20;6.40;;;;;;;11.40;78.96;99341.97;5011629;28;20061;-48
2024/01/05 09:29:00;;;;;;;10.80;6.10;;;;;;;11.56;78.63;99345.19;5012528;28;20072;-44
2024/01/05 09:31:27;;;;;;;10.93;6.35;;;;;;;11.57;78.61;99345.19;5013090;28;20037;-48
2024/01/05 09:33:54;;;;;;;12.38;6.05;;;;;;;11.08;79.87;99351.97;5011773;28;20068;-43
2024/01/05 09:36:19;;;;;;;12.57;6.10;;;;;;;11.44;79.14;99341.03;5012748;28;20061;-44
2024/01/05 09:38:45;;;;;;;9.38;6.10;;;;;;;11.32;79.68;99342.06;5011964;28;20069;-44
2024/01/05 09:41:13;;;;;;;11.18;6.13;;;;;;;11.70;78.85;99357.16;5012683;28;20033;-44
2024/01/05 09:43:40;;;;;;;10.07;5.80;;;;;;;11.28;79.54;99339.53;5011019;28;20081;-45
2024/01/05 09:46:07;;;;;;;8.50;5.75;;;;;;;11.67;78.61;99343.28;5012213;28;20026;-45
2024/01/05 09:48:32;;;;;;;10.25;5.40;;;;;;;11.62;78.95;99351.19;5012686;28;20033;-46
2024/01/05 09:50:59;;;;;;;11.43;5.80;;;;;;;11.79;78.00;99345.72;5011711;28;20046;-46
2024/01/05 09:53:24;;;;;;;11.75;5.22;;;;;;;11.75;78.70;99342.31;5012286;28;20038;-45
2024/01/05 09:55:50;;;;;;;11.50;5.57;;;;;;;11.91;78.18;99344.66;5011761;28;20115;-47
2024/01/05 09:58:17;;;;;;;10.52;5.45;;;;;;;12.15;78.10;99341.63;5012350;28;20049;-47
2024/01/05 10:00:52;;;;;;;11.65;6.25;;;;;;;11.88;78.57;99339.50;5012164;28;20044;-44
2024/01/05 10:03:24;;;;;;;8.40;5.20;;;;;;;11.88;78.34;99337.75;5012123;28;20065;-46
2024/01/05 10:05:50;;;;;;;8.82;5.50;;;;;;;12.10;77.33;99331.28;5010373;28;20041;-45
2024/01/05 10:08:16;;;;;;;8.50;5.05;;;;;;;11.90;77.34;99328.13;5012465;28;20103;-46
2024/01/05 10:10:48;;;;;;;8.45;4.80;;;;;;;12.17;77.33;99326.81;5011260;28;20547;-46
2024/01/05 10:13:17;;;;;;;8.55;4.75;;;;;;;12.02;77.79;99324.44;5012202;28;20042;-44
2024/01/05 10:15:55;;;;;;;6.45;4.28;;;;;;;11.98;77.84;99321.03;5011612;28;20172;-44
2024/01/05 10:18:22;;;;;;;6.93;4.25;;;;;;;11.97;77.65;99310.59;5013214;28;20129;-45
2024/01/05 10:20:47;;;;;;;6.75;3.65;;;;;;;11.91;78.38;99308.09;5012940;28;20081;-47
2024/01/05 10:23:15;;;;;;;7.05;3.70;;;;;;;11.46;79.21;99309.69;5012694;28;20045;-48
2024/01/05 10:25:40;;;;;;;6.20;3.83;;;;;;;11.61;79.30;99305.09;5013064;28;20057;-44
2024/01/05 10:28:38;;;;;;;6.80;3.63;;;;;;;11.67;79.48;99298.91;5011786;28;20532;-44
2024/01/05 10:31:14;;;;;;;5.85;3.35;;;;;;;11.43;80.37;99296.66;4991528;28;20070;-45
2024/01/05 10:33:54;;;;;;;4.35;3.17;;;;;;;11.44;80.95;99294.03;5004463;28;20072;-46
2024/01/05 10:36:20;;;;;;;5.63;3.20;;;;;;;11.28;81.07;99290.78;5011220;28;20444;-46
2024/01/05 10:38:46;;;;;;;4.72;3.00;;;;;;;11.86;79.61;99284.69;5011326;28;20034;-46
2024/01/05 10:41:12;;;;;;;5.45;3.03;;;;;;;12.02;79.28;99287.88;5011752;28;20420;-47
2024/01/05 10:43:37;;;;;;;6.15;3.10;;;;;;;12.02;78.96;99288.75;5011675;28;20030;-46
2024/01/05 10:46:04;;;;;;;5.15;3.28;;;;;;;12.08;78.68;99278.19;5007845;28;20038;-44
2024/01/05 10:48:31;;;;;;;4.75;3.00;;;;;;;12.19;78.32;99293.69;5011587;28;20034;-47
2024/01/05 10:50:58;;;;;;;8.50;3.33;;;;;;;12.03;78.74;99292.22;5012019;28;20065;-45
2024/01/05 10:53:24;;;;;;;6.03;3.30;;;;;;;12.29;78.43;99291.75;5011639;28;20065;-44
2024/01/05 10:55:50;;;;;;;5.57;3.25;;;;;;;12.39;78.18;99291.53;5013327;28;20087;-43
2024/01/05 10:58:16;;;;;;;6.22;3.65;;;;;;;12.21;78.52;99294.50;5016228;28;20038;-46
2024/01/05 11:00:41;;;;;;;6.88;3.20;;;;;;;12.29;78.81;99291.75;5022201;28;20104;-45
2024/01/05 11:03:14;;;;;;;8.45;3.35;;;;;;;12.39;78.91;99298.53;5019315;28;20037;-45
2024/01/05 11:05:41;;;;;;;5.70;3.22;;;;;;;12.32;78.71;99294.31;5011986;28;20089;-47
2024/01/05 11:08:22;;;;;;;7.68;3.35;;;;;;;12.15;79.89;99299.84;5011677;28;20037;-45
2024/01/05 11:11:01;;;;;;;12.10;3.67;;;;;;;12.19;80.20;99304.16;5010921;28;20084;-45
2024/01/05 11:13:33;;;;;;;7.30;3.97;;;;;;;12.05;81.11;99309.59;5011150;28;20543;-44
2024/01/05 11:16:17;;;;;;;13.52;4.82;;;;;;;12.22;81.55;99313.66;5011598;28;20135;-42
2024/01/05 11:18:43;;;;;;;9.15;5.07;;;;;;;12.32;80.69;99313.44;5011490;28;20034;-46
2024/01/05 11:21:16;;;;;;;10.35;4.53;;;;;;;12.20;81.44;99330.22;5010755;28;20049;-45
2024/01/05 11:23:43;;;;;;;13.18;5.20;;;;;;;12.46;80.94;99334.97;5010896;28;20400;-51